createdAt,value
2023-04-09T00:02:05.277Z,47.77
2023-04-09T00:04:32.482Z,56.60
2023-04-09T00:06:59.636Z,86.43
2023-04-09T00:09:26.709Z,70.43
2023-04-09T00:11:53.790Z,67.93
2023-04-09T00:14:20.905Z,60.73
2023-04-09T00:16:47.965Z,55.00
2023-04-09T00:19:15.321Z,55.50
2023-04-09T00:21:42.458Z,49.63
2023-04-09T00:24:09.541Z,56.27
2023-04-09T00:26:36.709Z,52.70
2023-04-09T00:29:03.903Z,57.90
2023-04-09T00:31:31.202Z,51.97
2023-04-09T00:33:58.336Z,48.07
2023-04-09T00:36:27.112Z,46.95
2023-04-09T00:38:54.449Z,48.63
2023-04-09T00:41:21.822Z,43.93
2023-04-09T00:43:48.980Z,42.17
2023-04-09T00:46:16.349Z,43.07
2023-04-09T00:48:43.561Z,42.80
2023-04-09T00:51:10.875Z,43.23
2023-04-09T00:53:37.957Z,44.87
2023-04-09T00:56:05.279Z,42.03
2023-04-09T00:58:32.450Z,47.10
2023-04-09T01:00:59.537Z,44.53
2023-04-09T01:03:26.958Z,38.03
2023-04-09T01:06:00.320Z,40.10
2023-04-09T01:08:27.415Z,35.23
2023-04-09T01:11:00.336Z,35.40
2023-04-09T01:13:44.057Z,36.00
2023-04-09T01:16:11.413Z,33.30
2023-04-09T01:18:44.172Z,37.93
2023-04-09T01:21:12.761Z,37.37
2023-04-09T01:23:54.858Z,35.00
2023-04-09T01:26:27.864Z,33.07
2023-04-09T01:28:55.086Z,30.57
2023-04-09T01:31:24.030Z,31.67
2023-04-09T01:33:51.154Z,33.10
2023-04-09T01:36:18.227Z,33.17
2023-04-09T01:38:45.779Z,32.40
2023-04-09T01:41:14.862Z,32.87
2023-04-09T01:43:42.329Z,33.47
2023-04-09T01:46:09.534Z,33.27
2023-04-09T01:48:36.751Z,31.47
2023-04-09T01:51:03.892Z,33.73
2023-04-09T01:53:31.180Z,31.27
2023-04-09T01:56:01.602Z,43.67
2023-04-09T01:58:28.819Z,48.33
2023-04-09T02:01:16.318Z,52.73
2023-04-09T02:03:50.454Z,52.03
2023-04-09T02:06:32.546Z,52.30
2023-04-09T02:09:00.122Z,50.57
2023-04-09T02:11:27.521Z,49.33
2023-04-09T02:13:54.709Z,49.50
2023-04-09T02:16:21.952Z,48.13
2023-04-09T02:18:50.995Z,47.90
2023-04-09T02:21:18.713Z,44.17
2023-04-09T02:23:45.896Z,42.17
2023-04-09T02:26:12.986Z,40.40
2023-04-09T02:28:40.087Z,41.90
2023-04-09T02:31:07.221Z,45.67
2023-04-09T02:33:34.377Z,46.17
2023-04-09T02:36:01.527Z,45.67
2023-04-09T02:38:28.621Z,47.00
2023-04-09T02:40:55.697Z,45.87
2023-04-09T02:43:22.862Z,39.40
2023-04-09T02:45:49.981Z,38.43
2023-04-09T02:48:17.073Z,37.27
2023-04-09T02:50:44.175Z,38.10
2023-04-09T02:53:11.270Z,35.13
2023-04-09T02:55:38.369Z,41.90
2023-04-09T02:58:05.633Z,44.47
2023-04-09T03:00:32.802Z,54.93
2023-04-09T03:03:00.042Z,70.53
2023-04-09T03:05:27.258Z,56.67
2023-04-09T03:07:54.940Z,47.13
2023-04-09T03:10:22.047Z,45.77
2023-04-09T03:12:49.178Z,48.87
2023-04-09T03:15:16.794Z,55.13
2023-04-09T03:17:43.910Z,32.23
2023-04-09T03:20:11.263Z,32.53
2023-04-09T03:22:38.702Z,47.80
2023-04-09T03:25:06.484Z,47.33
2023-04-09T03:27:33.684Z,44.90
2023-04-09T03:30:00.883Z,43.87
2023-04-09T03:32:28.031Z,44.33
2023-04-09T03:34:55.315Z,42.23
2023-04-09T03:37:22.415Z,40.40
2023-04-09T03:39:49.504Z,38.37
2023-04-09T03:42:16.619Z,38.22
2023-04-09T03:44:43.682Z,39.07
2023-04-09T03:47:10.783Z,35.27
2023-04-09T03:49:38.079Z,37.47
2023-04-09T03:52:05.227Z,36.90
2023-04-09T03:54:32.327Z,41.90
2023-04-09T03:56:59.453Z,41.93
2023-04-09T03:59:26.534Z,44.93
2023-04-09T04:01:53.794Z,42.93
2023-04-09T04:04:23.600Z,46.20
2023-04-09T04:06:51.442Z,43.23
2023-04-09T04:09:18.639Z,43.27
2023-04-09T04:11:45.852Z,42.90
2023-04-09T04:14:12.928Z,42.67
2023-04-09T04:16:43.280Z,45.83
2023-04-09T04:19:10.406Z,44.10
2023-04-09T04:21:37.494Z,42.37
2023-04-09T04:24:04.778Z,41.53
2023-04-09T04:26:31.919Z,41.73
2023-04-09T04:28:58.991Z,39.43
2023-04-09T04:31:26.112Z,40.73
2023-04-09T04:33:53.267Z,38.97
2023-04-09T04:36:20.342Z,40.50
2023-04-09T04:38:47.443Z,39.57
2023-04-09T04:41:14.555Z,41.83
2023-04-09T04:43:41.644Z,50.23
2023-04-09T04:46:08.759Z,54.83
2023-04-09T04:48:35.968Z,51.97
2023-04-09T04:51:03.127Z,49.27
2023-04-09T04:53:30.286Z,46.13
2023-04-09T04:55:57.479Z,46.67
2023-04-09T04:58:25.767Z,44.30
2023-04-09T05:00:52.917Z,44.47
2023-04-09T05:03:20.091Z,45.30
2023-04-09T05:05:47.304Z,41.23
2023-04-09T05:08:14.432Z,41.27
2023-04-09T05:10:43.084Z,40.37
2023-04-09T05:13:10.279Z,41.77
2023-04-09T05:15:40.652Z,39.60
2023-04-09T05:18:08.227Z,36.70
2023-04-09T05:20:35.611Z,36.00
2023-04-09T05:23:02.704Z,29.97
2023-04-09T05:25:29.863Z,30.60
2023-04-09T05:27:57.290Z,34.33
2023-04-09T05:30:24.423Z,30.40
2023-04-09T05:32:51.671Z,33.57
2023-04-09T05:35:18.846Z,30.47
2023-04-09T05:37:45.958Z,31.50
2023-04-09T05:40:13.413Z,31.05
2023-04-09T05:42:40.561Z,32.28
2023-04-09T05:45:07.961Z,33.20
2023-04-09T05:47:35.149Z,32.87
2023-04-09T05:50:02.282Z,35.00
2023-04-09T05:52:30.054Z,39.03
2023-04-09T05:54:57.162Z,41.37
2023-04-09T05:57:24.293Z,37.47
2023-04-09T05:59:51.399Z,35.97
2023-04-09T06:02:18.647Z,34.00
2023-04-09T06:04:45.976Z,43.42
2023-04-09T06:07:13.163Z,52.35
2023-04-09T06:09:40.488Z,49.90
2023-04-09T06:12:07.668Z,42.27
2023-04-09T06:14:34.797Z,40.80
2023-04-09T06:17:02.023Z,41.00
2023-04-09T06:19:29.164Z,45.53
2023-04-09T06:21:56.333Z,44.28
2023-04-09T06:24:23.690Z,43.37
2023-04-09T06:26:50.825Z,44.50
2023-04-09T06:29:17.922Z,42.08
2023-04-09T06:31:45.248Z,43.80
2023-04-09T06:34:12.342Z,42.80
2023-04-09T06:36:40.520Z,39.63
2023-04-09T06:39:07.858Z,42.58
2023-04-09T06:41:35.102Z,36.00
2023-04-09T06:44:02.322Z,34.25
2023-04-09T06:46:29.649Z,36.60
2023-04-09T06:48:56.765Z,35.83
2023-04-09T06:51:24.083Z,34.22
2023-04-09T06:53:51.447Z,33.65
2023-04-09T06:56:18.777Z,33.55
2023-04-09T06:58:45.919Z,30.02
2023-04-09T07:01:13.144Z,38.83
2023-04-09T07:03:40.704Z,26.35
2023-04-09T07:06:07.955Z,34.30
2023-04-09T07:08:35.373Z,35.33
2023-04-09T07:11:03.365Z,43.85
2023-04-09T07:13:31.271Z,37.40
2023-04-09T07:15:58.448Z,32.97
2023-04-09T07:18:25.637Z,35.08
2023-04-09T07:20:53.519Z,32.42
2023-04-09T07:23:20.692Z,37.67
2023-04-09T07:25:48.300Z,35.65
2023-04-09T07:28:15.457Z,31.48
2023-04-09T07:30:42.590Z,32.60
2023-04-09T07:33:11.217Z,30.52
2023-04-09T07:35:38.395Z,30.88
2023-04-09T07:38:05.662Z,28.33
2023-04-09T07:40:33.000Z,26.23
2023-04-09T07:43:00.133Z,26.92
2023-04-09T07:45:27.256Z,29.70
2023-04-09T07:47:54.367Z,32.60
2023-04-09T07:50:21.697Z,36.63
2023-04-09T07:52:48.829Z,32.65
2023-04-09T07:55:17.359Z,33.60
2023-04-09T07:57:45.850Z,34.05
2023-04-09T08:00:13.180Z,30.38
2023-04-09T08:02:40.735Z,26.52
2023-04-09T08:05:08.449Z,22.95
2023-04-09T08:07:35.746Z,22.83
2023-04-09T08:10:02.866Z,22.60
2023-04-09T08:12:29.937Z,22.27
2023-04-09T08:14:57.034Z,20.58
2023-04-09T08:17:24.650Z,21.30
2023-04-09T08:19:51.947Z,19.42
2023-04-09T08:22:19.097Z,21.90
2023-04-09T08:24:46.444Z,21.92
2023-04-09T08:27:13.689Z,21.23
2023-04-09T08:29:42.614Z,19.08
2023-04-09T08:32:09.863Z,27.05
2023-04-09T08:34:37.489Z,22.85
2023-04-09T08:37:04.671Z,24.33
2023-04-09T08:39:31.768Z,21.38
2023-04-09T08:42:02.464Z,23.42
2023-04-09T08:44:29.768Z,20.42
2023-04-09T08:46:58.516Z,20.23
2023-04-09T08:49:26.754Z,17.45
2023-04-09T08:51:53.882Z,17.40
2023-04-09T08:54:21.072Z,17.80
2023-04-09T08:56:48.261Z,23.02
2023-04-09T08:59:19.248Z,17.92
2023-04-09T09:01:47.968Z,17.35
2023-04-09T09:04:15.402Z,20.63
2023-04-09T09:06:42.687Z,20.70
2023-04-09T09:09:13.500Z,20.02
2023-04-09T09:11:41.717Z,17.83
2023-04-09T09:14:19.017Z,20.15
2023-04-09T09:16:58.642Z,15.75
2023-04-09T09:19:26.096Z,14.23
2023-04-09T09:21:59.324Z,15.25
2023-04-09T09:24:26.488Z,15.13
2023-04-09T09:26:57.473Z,15.70
2023-04-09T09:29:25.178Z,14.40
2023-04-09T09:31:52.953Z,16.60
2023-04-09T09:34:21.343Z,15.25
2023-04-09T09:36:48.440Z,16.25
2023-04-09T09:39:17.392Z,15.80
2023-04-09T09:41:48.881Z,15.55
2023-04-09T09:44:31.472Z,14.35
2023-04-09T09:46:58.713Z,15.02
2023-04-09T09:49:25.904Z,14.80
2023-04-09T09:51:53.377Z,14.65
2023-04-09T09:54:20.533Z,14.65
2023-04-09T09:56:47.781Z,14.35
2023-04-09T09:59:27.092Z,14.40
2023-04-09T10:01:58.012Z,14.38
2023-04-09T10:04:25.237Z,13.85
2023-04-09T10:06:53.462Z,13.90
2023-04-09T10:09:20.853Z,22.15
2023-04-09T10:11:48.827Z,15.50
2023-04-09T10:14:16.089Z,16.38
2023-04-09T10:16:43.237Z,16.42
2023-04-09T10:19:14.163Z,16.17
2023-04-09T10:22:00.197Z,16.10
2023-04-09T10:24:27.331Z,15.38
2023-04-09T10:26:54.879Z,16.65
2023-04-09T10:29:27.891Z,19.25
2023-04-09T10:31:55.805Z,18.58
2023-04-09T10:34:23.605Z,18.92
2023-04-09T10:36:53.534Z,17.00
2023-04-09T10:39:20.677Z,19.15
2023-04-09T10:41:48.830Z,25.13
2023-04-09T10:44:22.723Z,21.58
2023-04-09T10:46:51.140Z,23.45
2023-04-09T10:49:19.178Z,22.77
2023-04-09T10:51:49.979Z,18.25
2023-04-09T10:54:35.219Z,19.27
2023-04-09T10:57:08.621Z,17.45
2023-04-09T10:59:41.143Z,17.33
2023-04-09T11:02:09.099Z,18.92
2023-04-09T11:04:40.342Z,18.08
2023-04-09T11:07:07.537Z,16.80
2023-04-09T11:09:38.061Z,15.70
2023-04-09T11:12:05.243Z,18.90
2023-04-09T11:14:32.318Z,20.90
2023-04-09T11:16:59.446Z,19.85
2023-04-09T11:19:27.018Z,22.02
2023-04-09T11:21:54.103Z,19.08
2023-04-09T11:24:21.236Z,19.05
2023-04-09T11:26:49.150Z,17.63
2023-04-09T11:29:16.679Z,17.25
2023-04-09T11:31:47.069Z,16.80
2023-04-09T11:34:14.358Z,16.27
2023-04-09T11:36:41.585Z,15.98
2023-04-09T11:39:08.690Z,18.52
2023-04-09T11:41:38.798Z,21.13
2023-04-09T11:44:06.493Z,21.85
2023-04-09T11:46:33.740Z,22.17
2023-04-09T11:49:01.058Z,21.17
2023-04-09T11:51:28.451Z,21.50
2023-04-09T11:53:55.557Z,21.50
2023-04-09T11:56:22.708Z,20.58
2023-04-09T11:58:49.875Z,22.30
2023-04-09T12:01:17.003Z,23.02
2023-04-09T12:03:44.220Z,22.60
2023-04-09T12:06:11.366Z,19.95
2023-04-09T12:08:38.526Z,21.50
2023-04-09T12:11:16.095Z,24.60
2023-04-09T12:13:44.549Z,25.27
2023-04-09T12:16:14.661Z,28.60
2023-04-09T12:18:42.075Z,25.25
2023-04-09T12:21:09.446Z,26.92
2023-04-09T12:23:36.570Z,24.48
2023-04-09T12:26:03.824Z,33.53
2023-04-09T12:28:31.273Z,30.13
2023-04-09T12:30:59.439Z,33.90
2023-04-09T12:33:27.190Z,26.75
2023-04-09T12:35:54.439Z,26.05
2023-04-09T12:38:21.556Z,20.25
2023-04-09T12:40:48.683Z,21.48
2023-04-09T12:43:15.841Z,21.98
2023-04-09T12:45:42.965Z,22.05
2023-04-09T12:48:10.065Z,23.42
2023-04-09T12:50:37.171Z,24.02
2023-04-09T12:53:04.286Z,26.25
2023-04-09T12:55:31.598Z,22.40
2023-04-09T12:57:58.741Z,17.13
2023-04-09T13:00:25.812Z,17.88
2023-04-09T13:02:53.241Z,18.08
2023-04-09T13:05:20.603Z,19.52
2023-04-09T13:07:47.727Z,15.15
2023-04-09T13:10:14.819Z,15.70
2023-04-09T13:12:42.019Z,14.25
2023-04-09T13:15:09.242Z,20.20
2023-04-09T13:17:36.399Z,14.73
2023-04-09T13:20:03.775Z,14.68
2023-04-09T13:22:30.980Z,14.48
2023-04-09T13:24:58.106Z,14.98
2023-04-09T13:27:25.520Z,14.13
2023-04-09T13:29:52.585Z,14.95
2023-04-09T13:32:21.854Z,13.77
2023-04-09T13:34:49.351Z,14.90
2023-04-09T13:37:16.587Z,15.18
2023-04-09T13:39:44.748Z,19.13
2023-04-09T13:42:14.087Z,16.92
2023-04-09T13:44:44.508Z,13.32
2023-04-09T13:47:13.148Z,13.27
2023-04-09T13:49:40.746Z,14.07
2023-04-09T13:52:07.854Z,13.00
2023-04-09T13:54:35.419Z,14.80
2023-04-09T13:57:02.724Z,14.77
2023-04-09T13:59:29.788Z,14.65
2023-04-09T14:01:57.035Z,16.73
2023-04-09T14:04:24.220Z,19.02
2023-04-09T14:06:51.337Z,18.85
2023-04-09T14:09:18.441Z,18.77
2023-04-09T14:11:45.678Z,14.90
2023-04-09T14:14:12.826Z,15.32
2023-04-09T14:16:40.017Z,18.92
2023-04-09T14:19:07.316Z,15.40
2023-04-09T14:21:34.534Z,13.35
2023-04-09T14:24:01.751Z,16.27
2023-04-09T14:26:29.179Z,13.95
2023-04-09T14:28:56.351Z,12.88
2023-04-09T14:31:23.801Z,14.68
2023-04-09T14:33:51.057Z,12.85
2023-04-09T14:36:18.226Z,14.60
2023-04-09T14:38:45.906Z,14.55
2023-04-09T14:41:13.030Z,15.00
2023-04-09T14:43:40.152Z,14.52
2023-04-09T14:46:11.654Z,17.25
2023-04-09T14:48:42.438Z,13.57
2023-04-09T14:51:10.766Z,12.65
2023-04-09T14:53:38.138Z,11.77
2023-04-09T14:56:05.519Z,12.00
2023-04-09T14:58:32.604Z,20.08
2023-04-09T15:00:59.722Z,15.52
2023-04-09T15:03:26.940Z,14.45
2023-04-09T15:05:54.234Z,15.45
2023-04-09T15:08:21.564Z,19.13
2023-04-09T15:10:48.709Z,17.90
2023-04-09T15:13:16.019Z,19.75
2023-04-09T15:15:44.873Z,22.90
2023-04-09T15:18:11.990Z,24.58
2023-04-09T15:20:39.597Z,20.58
2023-04-09T15:23:06.720Z,21.20
2023-04-09T15:25:33.886Z,19.38
2023-04-09T15:28:02.257Z,16.90
2023-04-09T15:30:29.546Z,19.60
2023-04-09T15:32:56.686Z,21.65
2023-04-09T15:35:29.332Z,20.27
2023-04-09T15:37:57.344Z,20.55
2023-04-09T15:40:24.573Z,24.10
2023-04-09T15:42:51.675Z,24.15
2023-04-09T15:45:18.935Z,27.77
2023-04-09T15:47:46.442Z,30.45
2023-04-09T15:50:13.772Z,28.02
2023-04-09T15:52:41.190Z,27.27
2023-04-09T15:55:08.706Z,27.13
2023-04-09T15:57:35.866Z,23.65
2023-04-09T16:00:03.098Z,24.77
2023-04-09T16:02:30.366Z,25.85
2023-04-09T16:04:57.527Z,24.70
2023-04-09T16:07:24.776Z,23.52
2023-04-09T16:09:52.257Z,24.20
2023-04-09T16:12:19.853Z,22.05
2023-04-09T16:14:47.224Z,27.15
2023-04-09T16:17:15.260Z,27.02
2023-04-09T16:19:43.267Z,24.85
2023-04-09T16:22:12.029Z,24.85
2023-04-09T16:24:40.612Z,23.75
2023-04-09T16:27:08.123Z,20.67
2023-04-09T16:29:35.923Z,19.92
2023-04-09T16:32:04.024Z,19.85
2023-04-09T16:34:32.127Z,18.38
2023-04-09T16:36:59.590Z,20.52
2023-04-09T16:39:26.689Z,24.58
2023-04-09T16:41:53.802Z,26.35
2023-04-09T16:44:20.953Z,28.17
2023-04-09T16:46:49.132Z,31.13
2023-04-09T16:49:16.271Z,29.40
2023-04-09T16:51:43.569Z,30.35
2023-04-09T16:54:11.010Z,30.90
2023-04-09T16:56:38.186Z,32.40
2023-04-09T16:59:05.336Z,32.15
2023-04-09T17:01:32.536Z,33.28
2023-04-09T17:04:01.957Z,30.35
2023-04-09T17:06:29.395Z,31.17
2023-04-09T17:08:57.334Z,27.63
2023-04-09T17:11:24.481Z,26.77
2023-04-09T17:13:51.641Z,30.50
2023-04-09T17:16:18.797Z,33.35
2023-04-09T17:18:45.909Z,33.45
2023-04-09T17:21:13.090Z,32.10
2023-04-09T17:23:40.958Z,32.10
2023-04-09T17:26:08.140Z,38.28
2023-04-09T17:28:35.331Z,34.28
2023-04-09T17:31:02.498Z,40.63
2023-04-09T17:33:29.728Z,45.80
2023-04-09T17:35:57.691Z,40.53
2023-04-09T17:38:27.009Z,42.10
2023-04-09T17:40:54.292Z,48.00
2023-04-09T17:43:21.460Z,57.90
2023-04-09T17:45:49.293Z,52.20
2023-04-09T17:48:16.709Z,46.40
2023-04-09T17:50:43.919Z,51.20
2023-04-09T17:53:11.591Z,66.50
2023-04-09T17:55:38.765Z,76.43
2023-04-09T17:58:05.954Z,68.90
2023-04-09T18:00:34.772Z,50.35
2023-04-09T18:03:02.362Z,50.17
2023-04-09T18:05:29.926Z,49.35
2023-04-09T18:07:57.297Z,50.60
2023-04-09T18:10:24.434Z,68.97
2023-04-09T18:12:51.874Z,67.45
2023-04-09T18:15:19.205Z,58.08
2023-04-09T18:17:46.550Z,53.90
2023-04-09T18:20:15.308Z,47.65
2023-04-09T18:22:42.882Z,61.22
2023-04-09T18:25:10.361Z,70.65
2023-04-09T18:27:37.489Z,66.05
2023-04-09T18:30:04.730Z,59.47
2023-04-09T18:32:32.249Z,56.42
2023-04-09T18:34:59.603Z,55.70
2023-04-09T18:37:27.739Z,62.47
2023-04-09T18:39:55.139Z,58.60
2023-04-09T18:42:22.328Z,58.70
2023-04-09T18:44:49.403Z,62.28
2023-04-09T18:47:16.476Z,68.72
2023-04-09T18:49:43.600Z,63.47
2023-04-09T18:52:10.776Z,59.70
2023-04-09T18:54:38.805Z,79.60
2023-04-09T18:57:06.443Z,67.50
2023-04-09T18:59:34.880Z,73.60
2023-04-09T19:02:05.874Z,55.87
2023-04-09T19:04:39.373Z,58.47
2023-04-09T19:07:07.028Z,60.30
2023-04-09T19:09:34.548Z,48.70
2023-04-09T19:12:01.950Z,54.00
2023-04-09T19:14:29.248Z,53.77
2023-04-09T19:16:57.045Z,50.07
2023-04-09T19:19:24.166Z,49.90
2023-04-09T19:21:51.362Z,50.07
2023-04-09T19:24:18.455Z,48.57
2023-04-09T19:26:45.623Z,44.53
2023-04-09T19:29:12.749Z,55.90
2023-04-09T19:31:39.956Z,62.37
2023-04-09T19:34:07.183Z,58.37
2023-04-09T19:36:34.278Z,57.57
2023-04-09T19:39:01.395Z,55.77
2023-04-09T19:41:28.543Z,51.63
2023-04-09T19:43:55.945Z,43.93
2023-04-09T19:46:23.108Z,47.00
2023-04-09T19:48:50.825Z,41.43
2023-04-09T19:51:18.471Z,44.13
2023-04-09T19:53:47.353Z,45.38
2023-04-09T19:56:14.601Z,46.33
2023-04-09T19:58:42.304Z,48.43
2023-04-09T20:01:09.822Z,51.23
2023-04-09T20:03:37.185Z,52.60
2023-04-09T20:06:09.135Z,50.27
2023-04-09T20:08:36.770Z,46.25
2023-04-09T20:11:03.932Z,46.23
2023-04-09T20:13:31.653Z,43.23
2023-04-09T20:15:58.845Z,41.43
2023-04-09T20:18:26.024Z,40.53
2023-04-09T20:20:53.188Z,41.80
2023-04-09T20:23:20.321Z,46.47
2023-04-09T20:25:47.455Z,47.33
2023-04-09T20:28:14.578Z,46.57
2023-04-09T20:30:42.959Z,43.07
2023-04-09T20:33:10.103Z,44.97
2023-04-09T20:35:37.332Z,41.37
2023-04-09T20:38:04.601Z,43.27
2023-04-09T20:40:31.949Z,41.23
2023-04-09T20:42:59.486Z,42.60
2023-04-09T20:45:26.628Z,39.13
2023-04-09T20:47:53.729Z,45.88
2023-04-09T20:50:20.865Z,45.23
2023-04-09T20:52:49.539Z,42.40
2023-04-09T20:55:16.755Z,39.20
2023-04-09T20:57:44.001Z,40.07
2023-04-09T21:00:11.387Z,42.20
2023-04-09T21:02:39.437Z,40.33
2023-04-09T21:05:19.520Z,37.73
2023-04-09T21:07:49.624Z,34.67
2023-04-09T21:10:16.776Z,32.03
2023-04-09T21:12:43.941Z,32.45
2023-04-09T21:15:11.433Z,34.87
2023-04-09T21:17:38.542Z,36.25
2023-04-09T21:20:06.146Z,39.88
2023-04-09T21:22:34.504Z,42.17
2023-04-09T21:25:03.035Z,43.63
2023-04-09T21:27:30.270Z,40.17
2023-04-09T21:29:57.588Z,39.78
2023-04-09T21:32:25.128Z,44.13
2023-04-09T21:34:52.437Z,44.23
2023-04-09T21:37:19.567Z,43.00
2023-04-09T21:39:48.612Z,39.97
2023-04-09T21:42:15.860Z,38.93
2023-04-09T21:44:42.971Z,42.73
2023-04-09T21:47:12.020Z,38.70
2023-04-09T21:49:40.422Z,34.77
2023-04-09T21:52:14.173Z,33.83
2023-04-09T21:54:42.112Z,38.55
2023-04-09T21:57:09.216Z,36.70
2023-04-09T21:59:36.427Z,38.63
2023-04-09T22:02:04.398Z,36.63
2023-04-09T22:04:31.661Z,40.03
2023-04-09T22:06:58.798Z,36.87
2023-04-09T22:09:26.354Z,38.57
2023-04-09T22:11:53.698Z,37.53
2023-04-09T22:14:22.008Z,38.63
2023-04-09T22:16:49.074Z,37.80
2023-04-09T22:19:16.597Z,38.43
2023-04-09T22:21:43.788Z,34.87
2023-04-09T22:24:11.241Z,28.47
2023-04-09T22:26:40.805Z,30.10
2023-04-09T22:29:08.297Z,31.37
2023-04-09T22:31:35.396Z,36.70
2023-04-09T22:34:17.212Z,37.10
2023-04-09T22:36:46.904Z,44.60
2023-04-09T22:39:13.983Z,38.63
2023-04-09T22:41:41.151Z,39.00
2023-04-09T22:44:09.434Z,41.00
2023-04-09T22:46:36.888Z,50.33
2023-04-09T22:49:05.266Z,50.33
2023-04-09T22:51:34.656Z,46.47
2023-04-09T22:54:02.205Z,39.27
2023-04-09T22:56:30.126Z,37.07
2023-04-09T22:58:57.277Z,42.37
2023-04-09T23:01:24.381Z,43.13
2023-04-09T23:03:51.618Z,45.67
2023-04-09T23:06:18.848Z,43.67
2023-04-09T23:08:46.478Z,44.30
2023-04-09T23:11:13.626Z,43.57
2023-04-09T23:13:40.811Z,44.50
2023-04-09T23:16:08.381Z,40.83
2023-04-09T23:18:35.747Z,40.63
2023-04-09T23:21:07.060Z,38.53
2023-04-09T23:23:34.550Z,38.90
2023-04-09T23:26:01.732Z,40.50
2023-04-09T23:28:29.027Z,40.10
2023-04-09T23:30:56.770Z,77.07
2023-04-09T23:33:23.997Z,57.17
2023-04-09T23:35:51.294Z,61.83
2023-04-09T23:38:18.767Z,58.53
2023-04-09T23:40:47.346Z,58.70
2023-04-09T23:43:14.539Z,53.10
2023-04-09T23:45:41.642Z,51.77
2023-04-09T23:48:09.134Z,51.83
2023-04-09T23:50:39.904Z,46.60
2023-04-09T23:53:07.561Z,47.63
2023-04-09T23:55:38.077Z,45.40
2023-04-09T23:58:05.706Z,47.83
